sensor_id;sensor_type;location;lat;lon;timestamp;temperature;humidity
19522;DHT22;9905;52.126;5.596;2023-04-25T00:00:00;6.80;99.90
19522;DHT22;9905;52.126;5.596;2023-04-25T00:02:28;6.80;99.90
19522;DHT22;9905;52.126;5.596;2023-04-25T00:04:57;6.80;99.90
19522;DHT22;9905;52.126;5.596;2023-04-25T00:07:25;6.70;99.90
19522;DHT22;9905;52.126;5.596;2023-04-25T00:09:53;6.70;99.90
19522;DHT22;9905;52.126;5.596;2023-04-25T00:12:20;6.70;99.90
19522;DHT22;9905;52.126;5.596;2023-04-25T00:14:48;6.60;99.90
19522;DHT22;9905;52.126;5.596;2023-04-25T00:17:16;6.60;99.90
19522;DHT22;9905;52.126;5.596;2023-04-25T00:19:44;6.60;99.90
19522;DHT22;9905;52.126;5.596;2023-04-25T00:22:11;6.50;99.90
19522;DHT22;9905;52.126;5.596;2023-04-25T00:24:38;6.50;99.90
19522;DHT22;9905;52.126;5.596;2023-04-25T00:27:06;6.50;99.90
19522;DHT22;9905;52.126;5.596;2023-04-25T00:29:33;6.50;99.90
19522;DHT22;9905;52.126;5.596;2023-04-25T00:32:00;6.50;99.90
19522;DHT22;9905;52.126;5.596;2023-04-25T00:34:26;6.40;99.90
19522;DHT22;9905;52.126;5.596;2023-04-25T00:36:53;6.40;99.90
19522;DHT22;9905;52.126;5.596;2023-04-25T00:39:20;6.40;99.90
19522;DHT22;9905;52.126;5.596;2023-04-25T00:41:47;6.30;99.90
19522;DHT22;9905;52.126;5.596;2023-04-25T00:44:16;6.30;99.90
19522;DHT22;9905;52.126;5.596;2023-04-25T00:46:44;6.20;99.90
19522;DHT22;9905;52.126;5.596;2023-04-25T00:49:10;6.20;99.90
19522;DHT22;9905;52.126;5.596;2023-04-25T00:51:41;6.20;99.90
19522;DHT22;9905;52.126;5.596;2023-04-25T00:54:09;6.20;99.90
19522;DHT22;9905;52.126;5.596;2023-04-25T00:56:36;6.20;99.90
19522;DHT22;9905;52.126;5.596;2023-04-25T00:59:03;6.10;99.90
19522;DHT22;9905;52.126;5.596;2023-04-25T01:01:32;6.10;99.90
19522;DHT22;9905;52.126;5.596;2023-04-25T01:03:59;6.10;99.90
19522;DHT22;9905;52.126;5.596;2023-04-25T01:06:26;6.10;99.90
19522;DHT22;9905;52.126;5.596;2023-04-25T01:08:53;6.10;99.90
19522;DHT22;9905;52.126;5.596;2023-04-25T01:11:20;6.00;99.90
19522;DHT22;9905;52.126;5.596;2023-04-25T01:13:47;6.10;99.90
19522;DHT22;9905;52.126;5.596;2023-04-25T01:16:14;6.00;99.90
19522;DHT22;9905;52.126;5.596;2023-04-25T01:18:43;6.00;99.90
19522;DHT22;9905;52.126;5.596;2023-04-25T01:21:12;6.00;99.90
19522;DHT22;9905;52.126;5.596;2023-04-25T01:23:40;6.00;99.90
19522;DHT22;9905;52.126;5.596;2023-04-25T01:26:09;6.00;99.90
19522;DHT22;9905;52.126;5.596;2023-04-25T01:28:36;6.00;99.90
19522;DHT22;9905;52.126;5.596;2023-04-25T01:31:05;6.10;99.90
19522;DHT22;9905;52.126;5.596;2023-04-25T01:33:32;6.00;99.90
19522;DHT22;9905;52.126;5.596;2023-04-25T01:35:59;6.00;99.90
19522;DHT22;9905;52.126;5.596;2023-04-25T01:38:27;6.00;99.90
19522;DHT22;9905;52.126;5.596;2023-04-25T01:40:54;6.00;99.90
19522;DHT22;9905;52.126;5.596;2023-04-25T01:43:21;6.00;99.90
19522;DHT22;9905;52.126;5.596;2023-04-25T01:45:49;6.00;99.90
19522;DHT22;9905;52.126;5.596;2023-04-25T01:48:17;6.00;99.90
19522;DHT22;9905;52.126;5.596;2023-04-25T01:50:44;5.90;99.90
19522;DHT22;9905;52.126;5.596;2023-04-25T01:53:13;5.90;99.90
19522;DHT22;9905;52.126;5.596;2023-04-25T01:55:41;5.90;99.90
19522;DHT22;9905;52.126;5.596;2023-04-25T01:58:08;5.90;99.90
19522;DHT22;9905;52.126;5.596;2023-04-25T02:00:38;5.80;99.90
19522;DHT22;9905;52.126;5.596;2023-04-25T02:03:06;5.90;99.90
19522;DHT22;9905;52.126;5.596;2023-04-25T02:05:36;5.80;99.90
19522;DHT22;9905;52.126;5.596;2023-04-25T02:08:05;5.80;99.90
19522;DHT22;9905;52.126;5.596;2023-04-25T02:10:33;5.80;99.90
19522;DHT22;9905;52.126;5.596;2023-04-25T02:13:01;5.70;99.90
19522;DHT22;9905;52.126;5.596;2023-04-25T02:15:28;5.70;99.90
19522;DHT22;9905;52.126;5.596;2023-04-25T02:17:55;5.70;99.90
19522;DHT22;9905;52.126;5.596;2023-04-25T02:20:23;5.60;99.90
19522;DHT22;9905;52.126;5.596;2023-04-25T02:22:50;5.60;99.90
19522;DHT22;9905;52.126;5.596;2023-04-25T02:25:17;5.60;99.90
19522;DHT22;9905;52.126;5.596;2023-04-25T02:27:45;5.50;99.90
19522;DHT22;9905;52.126;5.596;2023-04-25T02:30:14;5.50;99.90
19522;DHT22;9905;52.126;5.596;2023-04-25T02:32:41;5.50;99.90
19522;DHT22;9905;52.126;5.596;2023-04-25T02:35:08;5.40;99.90
19522;DHT22;9905;52.126;5.596;2023-04-25T02:37:37;5.40;99.90
19522;DHT22;9905;52.126;5.596;2023-04-25T02:40:05;5.40;99.90
19522;DHT22;9905;52.126;5.596;2023-04-25T02:42:32;5.40;99.90
19522;DHT22;9905;52.126;5.596;2023-04-25T02:44:59;5.30;99.90
19522;DHT22;9905;52.126;5.596;2023-04-25T02:47:27;5.30;99.90
19522;DHT22;9905;52.126;5.596;2023-04-25T02:49:53;5.20;99.90
19522;DHT22;9905;52.126;5.596;2023-04-25T02:52:20;5.20;99.90
19522;DHT22;9905;52.126;5.596;2023-04-25T02:54:47;5.20;99.90
19522;DHT22;9905;52.126;5.596;2023-04-25T02:57:14;5.10;99.90
19522;DHT22;9905;52.126;5.596;2023-04-25T02:59:40;5.10;99.90
19522;DHT22;9905;52.126;5.596;2023-04-25T03:02:07;5.00;99.90
19522;DHT22;9905;52.126;5.596;2023-04-25T03:04:35;5.00;99.90
19522;DHT22;9905;52.126;5.596;2023-04-25T03:07:03;5.00;99.90
19522;DHT22;9905;52.126;5.596;2023-04-25T03:09:30;5.00;99.90
19522;DHT22;9905;52.126;5.596;2023-04-25T03:11:57;5.00;99.90
19522;DHT22;9905;52.126;5.596;2023-04-25T03:14:24;5.00;99.90
19522;DHT22;9905;52.126;5.596;2023-04-25T03:16:50;5.00;99.90
19522;DHT22;9905;52.126;5.596;2023-04-25T03:19:17;5.00;99.90
19522;DHT22;9905;52.126;5.596;2023-04-25T03:21:45;4.90;99.90
19522;DHT22;9905;52.126;5.596;2023-04-25T03:24:12;4.90;99.90
19522;DHT22;9905;52.126;5.596;2023-04-25T03:26:39;4.90;99.90
19522;DHT22;9905;52.126;5.596;2023-04-25T03:29:05;4.90;99.90
19522;DHT22;9905;52.126;5.596;2023-04-25T03:31:32;4.90;99.90
19522;DHT22;9905;52.126;5.596;2023-04-25T03:33:59;4.90;99.90
19522;DHT22;9905;52.126;5.596;2023-04-25T03:36:25;4.80;99.90
19522;DHT22;9905;52.126;5.596;2023-04-25T03:38:54;4.80;99.90
19522;DHT22;9905;52.126;5.596;2023-04-25T03:41:20;4.80;99.90
19522;DHT22;9905;52.126;5.596;2023-04-25T03:43:47;4.80;99.90
19522;DHT22;9905;52.126;5.596;2023-04-25T03:46:14;4.80;99.90
19522;DHT22;9905;52.126;5.596;2023-04-25T03:48:40;4.80;99.90
19522;DHT22;9905;52.126;5.596;2023-04-25T03:51:07;4.80;99.90
19522;DHT22;9905;52.126;5.596;2023-04-25T03:53:34;4.80;99.90
19522;DHT22;9905;52.126;5.596;2023-04-25T03:56:02;4.80;99.90
19522;DHT22;9905;52.126;5.596;2023-04-25T03:58:29;4.80;99.90
19522;DHT22;9905;52.126;5.596;2023-04-25T04:00:55;4.80;99.90
19522;DHT22;9905;52.126;5.596;2023-04-25T04:03:22;4.80;99.90
19522;DHT22;9905;52.126;5.596;2023-04-25T04:05:49;4.80;99.90
19522;DHT22;9905;52.126;5.596;2023-04-25T04:08:16;4.80;99.90
19522;DHT22;9905;52.126;5.596;2023-04-25T04:10:42;4.90;99.90
19522;DHT22;9905;52.126;5.596;2023-04-25T04:13:10;4.90;99.90
19522;DHT22;9905;52.126;5.596;2023-04-25T04:15:37;4.90;99.90
19522;DHT22;9905;52.126;5.596;2023-04-25T04:18:04;4.90;99.90
19522;DHT22;9905;52.126;5.596;2023-04-25T04:20:31;4.90;99.90
19522;DHT22;9905;52.126;5.596;2023-04-25T04:22:58;4.90;99.90
19522;DHT22;9905;52.126;5.596;2023-04-25T04:25:25;4.90;99.90
19522;DHT22;9905;52.126;5.596;2023-04-25T04:27:51;4.90;99.90
19522;DHT22;9905;52.126;5.596;2023-04-25T04:30:21;4.90;99.90
19522;DHT22;9905;52.126;5.596;2023-04-25T04:32:49;4.90;99.90
19522;DHT22;9905;52.126;5.596;2023-04-25T04:35:16;5.00;99.90
19522;DHT22;9905;52.126;5.596;2023-04-25T04:37:43;5.00;99.90
19522;DHT22;9905;52.126;5.596;2023-04-25T04:40:11;5.00;99.90
19522;DHT22;9905;52.126;5.596;2023-04-25T04:42:40;5.10;99.90
19522;DHT22;9905;52.126;5.596;2023-04-25T04:45:08;5.10;99.90
19522;DHT22;9905;52.126;5.596;2023-04-25T04:47:36;5.10;99.90
19522;DHT22;9905;52.126;5.596;2023-04-25T04:50:05;5.20;99.90
19522;DHT22;9905;52.126;5.596;2023-04-25T04:52:33;5.20;99.90
19522;DHT22;9905;52.126;5.596;2023-04-25T04:55:01;5.30;99.90
19522;DHT22;9905;52.126;5.596;2023-04-25T04:57:28;5.30;99.90
19522;DHT22;9905;52.126;5.596;2023-04-25T04:59:56;5.40;99.90
19522;DHT22;9905;52.126;5.596;2023-04-25T05:02:23;5.40;99.90
19522;DHT22;9905;52.126;5.596;2023-04-25T05:04:51;5.40;99.90
19522;DHT22;9905;52.126;5.596;2023-04-25T05:07:18;5.40;99.90
19522;DHT22;9905;52.126;5.596;2023-04-25T05:09:45;5.40;99.90
19522;DHT22;9905;52.126;5.596;2023-04-25T05:12:11;5.40;99.90
19522;DHT22;9905;52.126;5.596;2023-04-25T05:14:38;5.50;99.90
19522;DHT22;9905;52.126;5.596;2023-04-25T05:17:05;5.50;99.90
19522;DHT22;9905;52.126;5.596;2023-04-25T05:19:34;5.50;99.90
19522;DHT22;9905;52.126;5.596;2023-04-25T05:22:02;5.50;99.90
19522;DHT22;9905;52.126;5.596;2023-04-25T05:24:29;5.60;99.90
19522;DHT22;9905;52.126;5.596;2023-04-25T05:26:56;5.60;99.90
19522;DHT22;9905;52.126;5.596;2023-04-25T05:29:22;5.60;99.90
19522;DHT22;9905;52.126;5.596;2023-04-25T05:31:49;5.70;99.90
19522;DHT22;9905;52.126;5.596;2023-04-25T05:34:16;5.70;99.90
19522;DHT22;9905;52.126;5.596;2023-04-25T05:36:43;5.70;99.90
19522;DHT22;9905;52.126;5.596;2023-04-25T05:39:11;5.80;99.90
19522;DHT22;9905;52.126;5.596;2023-04-25T05:41:38;5.80;99.90
19522;DHT22;9905;52.126;5.596;2023-04-25T05:44:05;5.80;99.90
19522;DHT22;9905;52.126;5.596;2023-04-25T05:46:32;5.90;99.90
19522;DHT22;9905;52.126;5.596;2023-04-25T05:48:58;5.90;99.90
19522;DHT22;9905;52.126;5.596;2023-04-25T05:51:25;6.00;99.90
19522;DHT22;9905;52.126;5.596;2023-04-25T05:53:53;6.00;99.90
19522;DHT22;9905;52.126;5.596;2023-04-25T05:56:21;6.00;99.90
19522;DHT22;9905;52.126;5.596;2023-04-25T05:58:47;6.10;99.90
19522;DHT22;9905;52.126;5.596;2023-04-25T06:01:14;6.10;99.90
19522;DHT22;9905;52.126;5.596;2023-04-25T06:03:41;6.20;99.90
19522;DHT22;9905;52.126;5.596;2023-04-25T06:06:08;6.30;99.90
19522;DHT22;9905;52.126;5.596;2023-04-25T06:08:35;6.30;99.90
19522;DHT22;9905;52.126;5.596;2023-04-25T06:11:03;6.30;99.90
19522;DHT22;9905;52.126;5.596;2023-04-25T06:13:31;6.40;99.90
19522;DHT22;9905;52.126;5.596;2023-04-25T06:15:58;6.40;99.90
19522;DHT22;9905;52.126;5.596;2023-04-25T06:18:25;6.50;99.90
19522;DHT22;9905;52.126;5.596;2023-04-25T06:20:51;6.50;99.90
19522;DHT22;9905;52.126;5.596;2023-04-25T06:23:18;6.50;99.90
19522;DHT22;9905;52.126;5.596;2023-04-25T06:25:45;6.60;99.90
19522;DHT22;9905;52.126;5.596;2023-04-25T06:28:12;6.50;99.90
19522;DHT22;9905;52.126;5.596;2023-04-25T06:30:40;6.60;99.90
19522;DHT22;9905;52.126;5.596;2023-04-25T06:33:06;6.60;99.90
19522;DHT22;9905;52.126;5.596;2023-04-25T06:35:34;6.60;99.90
19522;DHT22;9905;52.126;5.596;2023-04-25T06:38:01;6.70;99.90
19522;DHT22;9905;52.126;5.596;2023-04-25T06:40:28;6.80;99.90
19522;DHT22;9905;52.126;5.596;2023-04-25T06:42:55;6.80;99.90
19522;DHT22;9905;52.126;5.596;2023-04-25T06:45:21;7.00;99.90
19522;DHT22;9905;52.126;5.596;2023-04-25T06:47:49;7.10;99.90
19522;DHT22;9905;52.126;5.596;2023-04-25T06:50:16;7.20;99.90
19522;DHT22;9905;52.126;5.596;2023-04-25T06:52:43;7.30;99.90
19522;DHT22;9905;52.126;5.596;2023-04-25T06:55:09;7.40;99.90
19522;DHT22;9905;52.126;5.596;2023-04-25T06:57:36;7.50;99.90
19522;DHT22;9905;52.126;5.596;2023-04-25T07:00:04;7.50;99.90
19522;DHT22;9905;52.126;5.596;2023-04-25T07:02:34;7.60;99.90
19522;DHT22;9905;52.126;5.596;2023-04-25T07:05:02;7.60;99.90
19522;DHT22;9905;52.126;5.596;2023-04-25T07:07:29;7.60;99.90
19522;DHT22;9905;52.126;5.596;2023-04-25T07:09:56;7.60;99.90
19522;DHT22;9905;52.126;5.596;2023-04-25T07:12:23;7.60;99.90
19522;DHT22;9905;52.126;5.596;2023-04-25T07:14:50;7.60;99.90
19522;DHT22;9905;52.126;5.596;2023-04-25T07:17:17;7.70;99.90
19522;DHT22;9905;52.126;5.596;2023-04-25T07:19:43;7.70;99.90
19522;DHT22;9905;52.126;5.596;2023-04-25T07:22:12;7.80;99.90
19522;DHT22;9905;52.126;5.596;2023-04-25T07:24:39;7.70;99.90
19522;DHT22;9905;52.126;5.596;2023-04-25T07:27:06;7.60;99.90
19522;DHT22;9905;52.126;5.596;2023-04-25T07:29:33;7.60;99.90
19522;DHT22;9905;52.126;5.596;2023-04-25T07:32:02;7.70;99.90
19522;DHT22;9905;52.126;5.596;2023-04-25T07:34:29;7.80;99.90
19522;DHT22;9905;52.126;5.596;2023-04-25T07:36:56;7.80;99.90
19522;DHT22;9905;52.126;5.596;2023-04-25T07:39:26;7.90;99.90
19522;DHT22;9905;52.126;5.596;2023-04-25T07:41:52;7.90;99.90
19522;DHT22;9905;52.126;5.596;2023-04-25T07:44:19;8.00;99.90
19522;DHT22;9905;52.126;5.596;2023-04-25T07:46:46;8.10;99.90
19522;DHT22;9905;52.126;5.596;2023-04-25T07:49:12;8.20;99.90
19522;DHT22;9905;52.126;5.596;2023-04-25T07:51:39;8.20;99.90
19522;DHT22;9905;52.126;5.596;2023-04-25T07:54:06;8.40;99.90
19522;DHT22;9905;52.126;5.596;2023-04-25T07:56:35;8.40;99.90
19522;DHT22;9905;52.126;5.596;2023-04-25T07:59:02;8.40;99.90
19522;DHT22;9905;52.126;5.596;2023-04-25T08:01:28;8.50;99.90
19522;DHT22;9905;52.126;5.596;2023-04-25T08:03:55;8.50;99.90
19522;DHT22;9905;52.126;5.596;2023-04-25T08:06:22;8.60;99.90
19522;DHT22;9905;52.126;5.596;2023-04-25T08:08:48;8.70;99.90
19522;DHT22;9905;52.126;5.596;2023-04-25T08:11:15;8.70;99.90
19522;DHT22;9905;52.126;5.596;2023-04-25T08:13:43;8.70;99.90
19522;DHT22;9905;52.126;5.596;2023-04-25T08:16:10;8.60;99.90
19522;DHT22;9905;52.126;5.596;2023-04-25T08:18:37;8.50;99.90
19522;DHT22;9905;52.126;5.596;2023-04-25T08:21:04;8.50;99.90
19522;DHT22;9905;52.126;5.596;2023-04-25T08:23:32;8.50;99.90
19522;DHT22;9905;52.126;5.596;2023-04-25T08:25:58;8.60;99.90
19522;DHT22;9905;52.126;5.596;2023-04-25T08:28:25;8.60;99.90
19522;DHT22;9905;52.126;5.596;2023-04-25T08:30:53;8.50;99.90
19522;DHT22;9905;52.126;5.596;2023-04-25T08:33:20;8.30;99.90
19522;DHT22;9905;52.126;5.596;2023-04-25T08:35:47;8.20;99.90
19522;DHT22;9905;52.126;5.596;2023-04-25T08:38:13;8.20;99.90
19522;DHT22;9905;52.126;5.596;2023-04-25T08:40:41;8.30;99.90
19522;DHT22;9905;52.126;5.596;2023-04-25T08:43:13;8.40;99.90
19522;DHT22;9905;52.126;5.596;2023-04-25T08:45:41;8.40;99.90
19522;DHT22;9905;52.126;5.596;2023-04-25T08:48:12;8.30;99.90
19522;DHT22;9905;52.126;5.596;2023-04-25T08:50:40;8.30;99.90
19522;DHT22;9905;52.126;5.596;2023-04-25T08:53:09;8.30;99.90
19522;DHT22;9905;52.126;5.596;2023-04-25T08:55:40;8.40;99.90
19522;DHT22;9905;52.126;5.596;2023-04-25T08:58:07;8.60;99.90
19522;DHT22;9905;52.126;5.596;2023-04-25T09:00:35;8.60;99.90
19522;DHT22;9905;52.126;5.596;2023-04-25T09:03:03;8.60;99.90
19522;DHT22;9905;52.126;5.596;2023-04-25T09:05:32;8.50;99.90
19522;DHT22;9905;52.126;5.596;2023-04-25T09:07:59;8.40;99.90
19522;DHT22;9905;52.126;5.596;2023-04-25T09:10:26;8.50;99.90
19522;DHT22;9905;52.126;5.596;2023-04-25T09:13:11;8.50;99.90
19522;DHT22;9905;52.126;5.596;2023-04-25T09:15:49;8.70;99.90
19522;DHT22;9905;52.126;5.596;2023-04-25T09:18:22;8.80;99.90
19522;DHT22;9905;52.126;5.596;2023-04-25T09:20:52;8.90;99.90
19522;DHT22;9905;52.126;5.596;2023-04-25T09:23:20;9.00;99.90
19522;DHT22;9905;52.126;5.596;2023-04-25T09:25:47;9.20;99.90
19522;DHT22;9905;52.126;5.596;2023-04-25T09:28:14;9.40;99.90
19522;DHT22;9905;52.126;5.596;2023-04-25T09:30:41;9.40;99.90
19522;DHT22;9905;52.126;5.596;2023-04-25T09:33:10;9.40;99.90
19522;DHT22;9905;52.126;5.596;2023-04-25T09:35:37;9.40;99.90
19522;DHT22;9905;52.126;5.596;2023-04-25T09:38:10;9.30;99.90
19522;DHT22;9905;52.126;5.596;2023-04-25T09:40:41;9.30;99.90
19522;DHT22;9905;52.126;5.596;2023-04-25T09:43:18;9.30;99.90
19522;DHT22;9905;52.126;5.596;2023-04-25T09:45:46;9.50;99.90
19522;DHT22;9905;52.126;5.596;2023-04-25T09:48:17;9.50;99.90
19522;DHT22;9905;52.126;5.596;2023-04-25T09:50:44;9.70;99.90
19522;DHT22;9905;52.126;5.596;2023-04-25T09:53:12;9.60;99.90
19522;DHT22;9905;52.126;5.596;2023-04-25T09:55:40;9.70;99.90
19522;DHT22;9905;52.126;5.596;2023-04-25T09:58:09;9.60;99.90
19522;DHT22;9905;52.126;5.596;2023-04-25T10:00:38;9.40;99.90
19522;DHT22;9905;52.126;5.596;2023-04-25T10:03:05;9.30;99.90
19522;DHT22;9905;52.126;5.596;2023-04-25T10:05:34;9.00;99.90
19522;DHT22;9905;52.126;5.596;2023-04-25T10:08:03;9.00;99.90
19522;DHT22;9905;52.126;5.596;2023-04-25T10:10:32;9.00;99.90
19522;DHT22;9905;52.126;5.596;2023-04-25T10:13:03;8.90;99.90
19522;DHT22;9905;52.126;5.596;2023-04-25T10:15:30;8.80;99.90
19522;DHT22;9905;52.126;5.596;2023-04-25T10:17:58;8.90;99.90
19522;DHT22;9905;52.126;5.596;2023-04-25T10:20:25;8.90;99.90
19522;DHT22;9905;52.126;5.596;2023-04-25T10:22:54;9.00;99.90
19522;DHT22;9905;52.126;5.596;2023-04-25T10:25:23;9.20;99.90
19522;DHT22;9905;52.126;5.596;2023-04-25T10:27:52;9.30;99.90
19522;DHT22;9905;52.126;5.596;2023-04-25T10:30:19;9.40;99.90
19522;DHT22;9905;52.126;5.596;2023-04-25T10:32:46;9.60;99.90
19522;DHT22;9905;52.126;5.596;2023-04-25T10:35:16;9.80;99.90
19522;DHT22;9905;52.126;5.596;2023-04-25T10:38:00;9.90;99.90
19522;DHT22;9905;52.126;5.596;2023-04-25T10:40:28;10.00;99.90
19522;DHT22;9905;52.126;5.596;2023-04-25T10:46:02;10.00;99.90
19522;DHT22;9905;52.126;5.596;2023-04-25T10:48:45;9.90;99.90
19522;DHT22;9905;52.126;5.596;2023-04-25T10:51:16;10.00;99.90
19522;DHT22;9905;52.126;5.596;2023-04-25T10:53:43;10.30;99.90
19522;DHT22;9905;52.126;5.596;2023-04-25T10:56:11;10.40;99.90
19522;DHT22;9905;52.126;5.596;2023-04-25T10:58:43;10.60;99.90
19522;DHT22;9905;52.126;5.596;2023-04-25T11:01:11;10.60;99.90
19522;DHT22;9905;52.126;5.596;2023-04-25T11:03:41;10.80;99.90
19522;DHT22;9905;52.126;5.596;2023-04-25T11:06:19;11.00;99.90
19522;DHT22;9905;52.126;5.596;2023-04-25T11:08:49;11.00;99.90
19522;DHT22;9905;52.126;5.596;2023-04-25T11:11:16;11.10;99.90
19522;DHT22;9905;52.126;5.596;2023-04-25T11:13:47;10.90;99.90
19522;DHT22;9905;52.126;5.596;2023-04-25T11:16:14;10.90;99.90
19522;DHT22;9905;52.126;5.596;2023-04-25T11:18:41;11.10;99.90
19522;DHT22;9905;52.126;5.596;2023-04-25T11:21:08;11.30;99.90
19522;DHT22;9905;52.126;5.596;2023-04-25T11:23:35;11.60;99.90
19522;DHT22;9905;52.126;5.596;2023-04-25T11:26:02;11.70;99.90
19522;DHT22;9905;52.126;5.596;2023-04-25T11:28:29;11.90;99.90
19522;DHT22;9905;52.126;5.596;2023-04-25T11:30:57;11.80;99.90
19522;DHT22;9905;52.126;5.596;2023-04-25T11:33:24;11.00;99.90
19522;DHT22;9905;52.126;5.596;2023-04-25T11:35:53;10.50;99.90
19522;DHT22;9905;52.126;5.596;2023-04-25T11:38:21;10.20;99.90
19522;DHT22;9905;52.126;5.596;2023-04-25T11:40:50;9.80;99.90
19522;DHT22;9905;52.126;5.596;2023-04-25T11:43:17;9.70;99.90
19522;DHT22;9905;52.126;5.596;2023-04-25T11:45:46;9.60;99.90
19522;DHT22;9905;52.126;5.596;2023-04-25T11:48:15;9.50;99.90
19522;DHT22;9905;52.126;5.596;2023-04-25T11:50:42;9.40;99.90
19522;DHT22;9905;52.126;5.596;2023-04-25T11:53:09;9.50;99.90
19522;DHT22;9905;52.126;5.596;2023-04-25T11:55:36;9.60;99.90
19522;DHT22;9905;52.126;5.596;2023-04-25T11:58:04;9.60;99.90
19522;DHT22;9905;52.126;5.596;2023-04-25T12:00:31;9.60;99.90
19522;DHT22;9905;52.126;5.596;2023-04-25T12:02:58;9.70;99.90
19522;DHT22;9905;52.126;5.596;2023-04-25T12:05:28;9.70;99.90
19522;DHT22;9905;52.126;5.596;2023-04-25T12:07:56;9.80;99.90
19522;DHT22;9905;52.126;5.596;2023-04-25T12:10:24;9.80;99.90
19522;DHT22;9905;52.126;5.596;2023-04-25T12:12:51;9.90;99.90
19522;DHT22;9905;52.126;5.596;2023-04-25T12:15:24;10.00;99.90
19522;DHT22;9905;52.126;5.596;2023-04-25T12:17:53;10.10;99.90
19522;DHT22;9905;52.126;5.596;2023-04-25T12:20:21;10.20;99.90
19522;DHT22;9905;52.126;5.596;2023-04-25T12:22:52;10.10;99.90
19522;DHT22;9905;52.126;5.596;2023-04-25T12:25:35;10.00;99.90
19522;DHT22;9905;52.126;5.596;2023-04-25T12:28:12;10.10;99.90
19522;DHT22;9905;52.126;5.596;2023-04-25T12:30:55;10.40;99.90
19522;DHT22;9905;52.126;5.596;2023-04-25T12:33:23;10.60;99.90
19522;DHT22;9905;52.126;5.596;2023-04-25T12:35:50;10.60;99.90
19522;DHT22;9905;52.126;5.596;2023-04-25T12:38:26;10.50;99.90
19522;DHT22;9905;52.126;5.596;2023-04-25T12:40:53;10.50;99.90
19522;DHT22;9905;52.126;5.596;2023-04-25T12:43:20;10.70;99.90
19522;DHT22;9905;52.126;5.596;2023-04-25T12:45:47;10.70;99.90
19522;DHT22;9905;52.126;5.596;2023-04-25T12:48:15;11.00;99.90
19522;DHT22;9905;52.126;5.596;2023-04-25T12:50:41;11.30;99.90
19522;DHT22;9905;52.126;5.596;2023-04-25T12:53:08;11.20;99.90
19522;DHT22;9905;52.126;5.596;2023-04-25T12:55:37;11.00;99.90
19522;DHT22;9905;52.126;5.596;2023-04-25T12:58:03;10.90;99.90
19522;DHT22;9905;52.126;5.596;2023-04-25T13:00:30;10.80;99.90
19522;DHT22;9905;52.126;5.596;2023-04-25T13:02:57;10.90;99.90
19522;DHT22;9905;52.126;5.596;2023-04-25T13:05:24;11.20;99.90
19522;DHT22;9905;52.126;5.596;2023-04-25T13:07:51;11.50;99.90
19522;DHT22;9905;52.126;5.596;2023-04-25T13:10:18;11.90;99.90
19522;DHT22;9905;52.126;5.596;2023-04-25T13:12:46;12.30;99.90
19522;DHT22;9905;52.126;5.596;2023-04-25T13:15:13;12.30;99.90
19522;DHT22;9905;52.126;5.596;2023-04-25T13:17:41;11.80;99.90
19522;DHT22;9905;52.126;5.596;2023-04-25T13:20:09;11.90;99.90
19522;DHT22;9905;52.126;5.596;2023-04-25T13:22:37;11.80;99.90
19522;DHT22;9905;52.126;5.596;2023-04-25T13:25:05;11.70;99.90
19522;DHT22;9905;52.126;5.596;2023-04-25T13:27:32;11.90;99.90
19522;DHT22;9905;52.126;5.596;2023-04-25T13:30:01;12.10;99.90
19522;DHT22;9905;52.126;5.596;2023-04-25T13:32:32;12.00;99.90
19522;DHT22;9905;52.126;5.596;2023-04-25T13:34:59;11.50;99.90
19522;DHT22;9905;52.126;5.596;2023-04-25T13:37:26;11.30;99.90
19522;DHT22;9905;52.126;5.596;2023-04-25T13:39:53;11.20;99.90
19522;DHT22;9905;52.126;5.596;2023-04-25T13:42:20;11.20;99.90
19522;DHT22;9905;52.126;5.596;2023-04-25T13:44:47;11.10;99.90
19522;DHT22;9905;52.126;5.596;2023-04-25T13:47:15;11.20;99.90
19522;DHT22;9905;52.126;5.596;2023-04-25T13:49:42;10.90;99.90
19522;DHT22;9905;52.126;5.596;2023-04-25T13:52:08;11.00;99.90
19522;DHT22;9905;52.126;5.596;2023-04-25T13:54:35;11.00;99.90
19522;DHT22;9905;52.126;5.596;2023-04-25T13:57:02;11.10;99.90
19522;DHT22;9905;52.126;5.596;2023-04-25T13:59:29;11.20;99.90
19522;DHT22;9905;52.126;5.596;2023-04-25T14:01:56;11.50;99.90
19522;DHT22;9905;52.126;5.596;2023-04-25T14:04:24;11.80;99.90
19522;DHT22;9905;52.126;5.596;2023-04-25T14:06:51;12.00;99.90
19522;DHT22;9905;52.126;5.596;2023-04-25T14:09:19;12.10;99.90
19522;DHT22;9905;52.126;5.596;2023-04-25T14:11:46;12.00;99.90
19522;DHT22;9905;52.126;5.596;2023-04-25T14:14:13;11.70;99.90
19522;DHT22;9905;52.126;5.596;2023-04-25T14:16:41;11.30;99.90
19522;DHT22;9905;52.126;5.596;2023-04-25T14:19:08;11.30;99.90
19522;DHT22;9905;52.126;5.596;2023-04-25T14:21:36;11.10;99.90
19522;DHT22;9905;52.126;5.596;2023-04-25T14:24:03;10.90;99.90
19522;DHT22;9905;52.126;5.596;2023-04-25T14:26:30;10.70;99.90
19522;DHT22;9905;52.126;5.596;2023-04-25T14:28:57;10.60;99.90
19522;DHT22;9905;52.126;5.596;2023-04-25T14:31:24;10.50;99.90
19522;DHT22;9905;52.126;5.596;2023-04-25T14:33:50;10.80;99.90
19522;DHT22;9905;52.126;5.596;2023-04-25T14:36:17;11.10;99.90
19522;DHT22;9905;52.126;5.596;2023-04-25T14:38:45;11.40;99.90
19522;DHT22;9905;52.126;5.596;2023-04-25T14:41:12;11.80;99.90
19522;DHT22;9905;52.126;5.596;2023-04-25T14:43:39;12.10;99.90
19522;DHT22;9905;52.126;5.596;2023-04-25T14:46:06;11.70;99.90
19522;DHT22;9905;52.126;5.596;2023-04-25T14:48:34;11.50;99.90
19522;DHT22;9905;52.126;5.596;2023-04-25T14:51:00;11.60;99.90
19522;DHT22;9905;52.126;5.596;2023-04-25T14:53:27;11.80;99.90
19522;DHT22;9905;52.126;5.596;2023-04-25T14:55:55;11.90;99.90
19522;DHT22;9905;52.126;5.596;2023-04-25T14:58:22;11.90;99.90
19522;DHT22;9905;52.126;5.596;2023-04-25T15:00:49;12.20;99.90
19522;DHT22;9905;52.126;5.596;2023-04-25T15:03:16;12.50;99.90
19522;DHT22;9905;52.126;5.596;2023-04-25T15:05:43;12.60;99.90
19522;DHT22;9905;52.126;5.596;2023-04-25T15:08:10;12.80;99.90
19522;DHT22;9905;52.126;5.596;2023-04-25T15:10:37;13.00;99.90
19522;DHT22;9905;52.126;5.596;2023-04-25T15:13:05;12.80;99.90
19522;DHT22;9905;52.126;5.596;2023-04-25T15:15:33;12.60;99.90
19522;DHT22;9905;52.126;5.596;2023-04-25T15:18:00;12.50;99.90
19522;DHT22;9905;52.126;5.596;2023-04-25T15:20:26;12.50;99.90
19522;DHT22;9905;52.126;5.596;2023-04-25T15:22:53;12.60;99.90
19522;DHT22;9905;52.126;5.596;2023-04-25T15:25:20;12.70;99.90
19522;DHT22;9905;52.126;5.596;2023-04-25T15:27:47;12.80;99.90
19522;DHT22;9905;52.126;5.596;2023-04-25T15:30:18;13.00;99.90
19522;DHT22;9905;52.126;5.596;2023-04-25T15:32:45;13.00;99.90
19522;DHT22;9905;52.126;5.596;2023-04-25T15:35:13;12.90;99.90
19522;DHT22;9905;52.126;5.596;2023-04-25T15:37:40;12.60;99.90
19522;DHT22;9905;52.126;5.596;2023-04-25T15:40:09;12.30;99.90
19522;DHT22;9905;52.126;5.596;2023-04-25T15:42:36;12.20;99.90
19522;DHT22;9905;52.126;5.596;2023-04-25T15:45:03;12.10;99.90
19522;DHT22;9905;52.126;5.596;2023-04-25T15:47:32;12.10;99.90
19522;DHT22;9905;52.126;5.596;2023-04-25T15:49:59;11.90;99.90
19522;DHT22;9905;52.126;5.596;2023-04-25T15:52:26;11.50;99.90
19522;DHT22;9905;52.126;5.596;2023-04-25T15:54:53;11.50;99.90
19522;DHT22;9905;52.126;5.596;2023-04-25T15:57:20;11.50;99.90
19522;DHT22;9905;52.126;5.596;2023-04-25T15:59:47;11.50;99.90
19522;DHT22;9905;52.126;5.596;2023-04-25T16:02:15;11.50;99.90